Milton Keynes, United Kingdom
Current Conditions -  °F | °C
As of 11:20 AM on Sunday 21 Dec 2014 (Local Time) from EGTC Reporting Station
Broken Clouds Broken Clouds  
Wind Chill: 38°   Ceiling: 800
Heat Index: 46°   Visibility: 6mi
Dew Point: 45°   Wind: 23mph
Humidity: 93%   Direction: 230°SW
Pressure: 30.27"   Gusts: NA
Location:  52.04°N, 0.76°W
Report Text: EGTC 211120Z 23020KT 9999 BKN008 BKN034 08/07 Q1025
Loading
Personal Weather Stations






























Interactive Weather Map New forecast layout! Learn more

10-Day Weather Forecast

Advertisements
Track Severe Weather on mobile